createdAt,value
2022-08-27T00:00:57.631Z,20.85
2022-08-27T00:03:51.661Z,21.05
2022-08-27T00:06:38.621Z,21.35
2022-08-27T00:09:12.701Z,19.73
2022-08-27T00:11:59.619Z,21.23
2022-08-27T00:14:34.694Z,20.65
2022-08-27T00:17:21.644Z,21.42
2022-08-27T00:20:01.614Z,22.55
2022-08-27T00:22:48.632Z,22.80
2022-08-27T00:25:22.822Z,21.92
2022-08-27T00:28:16.645Z,21.58
2022-08-27T00:31:03.662Z,22.55
2022-08-27T00:33:36.712Z,21.83
2022-08-27T00:36:23.637Z,21.35
2022-08-27T00:38:56.718Z,21.33
2022-08-27T00:41:45.630Z,22.13
2022-08-27T00:44:20.489Z,20.95
2022-08-27T00:47:11.641Z,21.80
2022-08-27T00:49:58.727Z,20.98
2022-08-27T00:52:59.736Z,22.38
2022-08-27T00:55:39.846Z,22.67
2022-08-27T00:58:35.646Z,21.30
2022-08-27T01:01:11.806Z,22.90
2022-08-27T01:04:02.656Z,20.88
2022-08-27T01:06:47.649Z,21.27
2022-08-27T01:09:35.652Z,21.52
2022-08-27T01:12:09.756Z,22.10
2022-08-27T01:14:56.657Z,21.40
2022-08-27T01:17:36.646Z,20.23
2022-08-27T01:20:28.659Z,21.50
2022-08-27T01:23:36.755Z,22.35
2022-08-27T01:26:24.669Z,20.33
2022-08-27T01:29:06.678Z,22.63
2022-08-27T01:32:00.659Z,22.17
2022-08-27T01:34:54.690Z,21.48
2022-08-27T01:37:49.664Z,23.42
2022-08-27T01:40:45.659Z,21.90
2022-08-27T01:43:39.675Z,21.80
2022-08-27T01:46:31.742Z,22.70
2022-08-27T01:49:04.771Z,22.20
2022-08-27T01:51:51.674Z,21.30
2022-08-27T01:54:27.757Z,20.95
2022-08-27T01:57:14.681Z,22.73
2022-08-27T01:59:48.742Z,23.65
2022-08-27T02:02:35.686Z,23.63
2022-08-27T02:05:08.741Z,21.73
2022-08-27T02:07:55.699Z,22.65
2022-08-27T02:10:43.698Z,23.13
2022-08-27T02:13:37.715Z,23.05
2022-08-27T02:16:31.703Z,24.17
2022-08-27T02:19:26.676Z,24.15
2022-08-27T02:22:13.681Z,23.73
2022-08-27T02:24:53.695Z,23.55
2022-08-27T02:27:47.697Z,23.02
2022-08-27T02:30:44.692Z,24.50
2022-08-27T02:33:31.698Z,22.00
2022-08-27T02:36:11.720Z,21.75
2022-08-27T02:38:58.684Z,23.00
2022-08-27T02:41:31.796Z,23.45
2022-08-27T02:44:18.681Z,25.45
2022-08-27T02:46:58.756Z,21.92
2022-08-27T02:49:45.702Z,24.77
2022-08-27T02:52:25.695Z,21.23
2022-08-27T02:55:13.730Z,21.75
2022-08-27T02:57:46.792Z,23.55
2022-08-27T03:00:35.718Z,22.38
2022-08-27T03:03:10.742Z,23.63
2022-08-27T03:05:57.749Z,23.27
2022-08-27T03:08:52.017Z,21.65
2022-08-27T03:11:40.696Z,21.63
2022-08-27T03:14:14.831Z,21.33
2022-08-27T03:17:01.721Z,22.23
2022-08-27T03:19:41.731Z,22.98
2022-08-27T03:22:28.732Z,22.73
2022-08-27T03:25:08.750Z,21.65
2022-08-27T03:27:55.731Z,21.52
2022-08-27T03:30:52.776Z,22.13
2022-08-27T03:33:45.736Z,22.50
2022-08-27T03:36:18.823Z,21.63
2022-08-27T03:39:05.759Z,23.63
2022-08-27T03:41:54.751Z,23.27
2022-08-27T03:44:42.742Z,22.02
2022-08-27T03:47:22.730Z,22.08
2022-08-27T03:50:11.729Z,21.73
2022-08-27T03:52:51.741Z,22.15
2022-08-27T03:55:39.742Z,22.10
2022-08-27T03:58:24.759Z,21.52
2022-08-27T04:01:19.778Z,20.98
2022-08-27T04:04:06.758Z,22.70
2022-08-27T04:06:41.008Z,20.13
2022-08-27T04:09:27.745Z,22.38
2022-08-27T04:12:03.871Z,22.20
2022-08-27T04:14:50.738Z,21.15
2022-08-27T04:17:23.869Z,21.70
2022-08-27T04:20:34.043Z,18.25
2022-08-27T04:23:12.759Z,20.52
2022-08-27T04:26:06.764Z,21.60
2022-08-27T04:29:00.741Z,21.15
2022-08-27T04:31:54.788Z,20.33
2022-08-27T04:34:48.770Z,20.55
2022-08-27T04:37:39.772Z,20.33
2022-08-27T04:40:13.946Z,21.05
2022-08-27T04:43:00.760Z,20.20
2022-08-27T04:45:33.870Z,20.73
2022-08-27T04:48:22.766Z,19.30
2022-08-27T04:50:55.908Z,19.67
2022-08-27T04:53:42.748Z,20.73
2022-08-27T04:56:23.871Z,19.02
2022-08-27T04:59:14.783Z,21.00
2022-08-27T05:01:49.935Z,20.77
2022-08-27T05:04:36.783Z,20.80
2022-08-27T05:07:10.964Z,21.20
2022-08-27T05:09:58.822Z,19.23
2022-08-27T05:12:31.898Z,20.92
2022-08-27T05:15:18.777Z,20.00
2022-08-27T05:17:53.768Z,18.40
2022-08-27T05:20:48.775Z,17.88
2022-08-27T05:23:30.805Z,18.55
2022-08-27T05:26:17.795Z,19.88
2022-08-27T05:28:51.972Z,20.05
2022-08-27T05:31:38.860Z,18.48
2022-08-27T05:34:15.417Z,19.35
2022-08-27T05:37:11.799Z,20.27
2022-08-27T05:39:44.960Z,21.55
2022-08-27T05:42:34.812Z,19.02
2022-08-27T05:45:14.968Z,20.17
2022-08-27T05:48:08.894Z,18.77
2022-08-27T05:50:55.801Z,21.42
2022-08-27T05:53:29.106Z,20.15
2022-08-27T05:56:24.818Z,19.60
2022-08-27T05:59:16.550Z,19.77
2022-08-27T06:02:04.816Z,20.98
2022-08-27T06:04:44.808Z,17.98
2022-08-27T06:07:38.790Z,20.02
2022-08-27T06:10:26.801Z,19.90
2022-08-27T06:12:59.880Z,19.48
2022-08-27T06:15:46.869Z,21.42
2022-08-27T06:18:19.905Z,17.80
2022-08-27T06:21:07.880Z,20.90
2022-08-27T06:23:41.898Z,19.15
2022-08-27T06:26:30.812Z,20.55
2022-08-27T06:29:10.057Z,21.02
2022-08-27T06:31:56.821Z,19.65
2022-08-27T06:34:31.759Z,18.98
2022-08-27T06:37:18.837Z,20.27
2022-08-27T06:39:52.064Z,21.15
2022-08-27T06:42:38.832Z,18.70
2022-08-27T06:45:20.823Z,19.48
2022-08-27T06:48:14.846Z,19.55
2022-08-27T06:51:08.836Z,24.33
2022-08-27T06:53:55.873Z,19.83
2022-08-27T06:56:36.847Z,19.20
2022-08-27T06:59:25.880Z,20.95
2022-08-27T07:02:05.923Z,18.40
2022-08-27T07:04:52.839Z,18.70
2022-08-27T07:07:37.188Z,19.42
2022-08-27T07:10:35.877Z,18.70
2022-08-27T07:13:23.880Z,21.75
2022-08-27T07:15:57.023Z,18.88
2022-08-27T07:18:39.876Z,20.33
2022-08-27T07:21:27.874Z,18.30
2022-08-27T07:24:15.878Z,21.63
2022-08-27T07:26:50.052Z,22.02
2022-08-27T07:29:36.861Z,22.05
2022-08-27T07:32:16.826Z,19.75
2022-08-27T07:35:10.869Z,19.30
2022-08-27T07:37:57.878Z,19.92
2022-08-27T07:40:37.904Z,21.40
2022-08-27T07:43:46.855Z,18.70
2022-08-27T07:46:20.041Z,18.85
2022-08-27T07:49:06.863Z,19.70
2022-08-27T07:51:46.870Z,20.52
2022-08-27T07:54:40.890Z,19.92
2022-08-27T07:57:27.878Z,21.17
2022-08-27T08:00:01.007Z,21.27
2022-08-27T08:02:51.953Z,21.35
2022-08-27T08:05:31.886Z,19.40
2022-08-27T08:08:18.878Z,23.45
2022-08-27T08:10:58.867Z,23.35
2022-08-27T08:13:52.876Z,21.48
2022-08-27T08:16:40.035Z,21.23
2022-08-27T08:19:19.902Z,19.50
2022-08-27T08:22:13.890Z,19.73
2022-08-27T08:25:00.900Z,20.85
2022-08-27T08:27:34.029Z,19.45
2022-08-27T08:30:21.884Z,18.85
2022-08-27T08:33:01.898Z,18.27
2022-08-27T08:35:48.899Z,18.88
2022-08-27T08:38:30.978Z,18.58
2022-08-27T08:41:49.897Z,19.08
2022-08-27T08:44:51.907Z,18.73
2022-08-27T08:48:02.895Z,19.05
2022-08-27T08:50:50.966Z,17.83
2022-08-27T08:54:01.914Z,18.02
2022-08-27T08:57:12.964Z,17.33
2022-08-27T09:00:18.916Z,18.88
2022-08-27T09:03:12.912Z,18.85
2022-08-27T09:06:14.963Z,18.48
2022-08-27T09:08:49.384Z,18.75
2022-08-27T09:11:56.959Z,19.88
2022-08-27T09:14:56.329Z,18.58
2022-08-27T09:17:44.977Z,17.70
2022-08-27T09:20:20.030Z,17.20
2022-08-27T09:23:15.979Z,19.23
2022-08-27T09:25:50.025Z,18.50
2022-08-27T09:28:55.915Z,19.77
2022-08-27T09:31:50.964Z,20.70
2022-08-27T09:34:46.972Z,19.02
2022-08-27T09:37:38.968Z,17.50
2022-08-27T09:40:56.976Z,17.15
2022-08-27T09:43:45.983Z,19.75
2022-08-27T09:46:38.969Z,17.88
2022-08-27T09:49:32.972Z,19.77
2022-08-27T09:52:38.972Z,18.08
2022-08-27T09:55:13.085Z,19.35
2022-08-27T09:58:01.988Z,17.65
2022-08-27T10:00:47.579Z,17.77
2022-08-27T10:03:33.998Z,17.83
2022-08-27T10:06:13.984Z,18.17
2022-08-27T10:09:07.989Z,18.30
2022-08-27T10:11:57.077Z,18.00
2022-08-27T10:14:48.966Z,16.98
2022-08-27T10:17:55.984Z,19.67
2022-08-27T10:21:15.624Z,18.52
2022-08-27T10:24:25.789Z,18.35
2022-08-27T10:27:09.647Z,18.95
2022-08-27T10:30:19.984Z,16.40
2022-08-27T10:33:25.743Z,18.75
2022-08-27T10:36:34.141Z,19.13
2022-08-27T10:40:09.762Z,19.23
2022-08-27T10:43:06.074Z,18.45
2022-08-27T10:46:11.753Z,16.30
2022-08-27T10:48:52.084Z,19.30
2022-08-27T10:51:48.009Z,18.77
2022-08-27T10:54:30.134Z,20.95
2022-08-27T10:57:53.204Z,18.35
2022-08-27T11:00:30.068Z,17.38
2022-08-27T11:03:23.027Z,18.02
2022-08-27T11:05:58.100Z,18.65
2022-08-27T11:08:48.037Z,16.33
2022-08-27T11:15:00.038Z,17.67
2022-08-27T11:17:49.029Z,17.65
2022-08-27T11:20:55.023Z,15.27
2022-08-27T11:24:02.040Z,17.63
2022-08-27T11:26:50.032Z,16.08
2022-08-27T11:30:00.208Z,17.30
2022-08-27T11:32:54.035Z,17.25
2022-08-27T11:36:04.050Z,17.02
2022-08-27T11:39:04.037Z,17.60
2022-08-27T11:42:07.065Z,17.52
2022-08-27T11:44:50.662Z,17.27
2022-08-27T11:47:38.750Z,18.15
2022-08-27T11:50:22.127Z,17.17
2022-08-27T11:53:14.038Z,17.73
2022-08-27T11:55:47.166Z,16.33
2022-08-27T11:58:52.880Z,18.63
2022-08-27T12:01:43.076Z,18.80
2022-08-27T12:04:33.171Z,18.00
2022-08-27T12:07:11.855Z,17.98
2022-08-27T12:10:27.071Z,18.75
2022-08-27T12:13:23.100Z,19.73
2022-08-27T12:16:30.115Z,17.27
2022-08-27T12:19:36.064Z,17.80
2022-08-27T12:22:16.146Z,18.38
2022-08-27T12:25:05.073Z,18.02
2022-08-27T12:27:40.127Z,16.20
2022-08-27T12:30:48.041Z,17.75
2022-08-27T12:33:56.077Z,17.33
2022-08-27T12:36:52.059Z,18.98
2022-08-27T12:39:56.135Z,17.48
2022-08-27T12:42:44.057Z,19.30
2022-08-27T12:45:26.204Z,18.88
2022-08-27T12:48:16.073Z,18.85
2022-08-27T12:50:58.083Z,19.45
2022-08-27T12:54:18.133Z,19.92
2022-08-27T12:57:30.069Z,19.60
2022-08-27T13:00:28.141Z,19.65
2022-08-27T13:03:18.085Z,18.15
2022-08-27T13:06:12.075Z,18.15
2022-08-27T13:09:06.085Z,20.20
2022-08-27T13:11:42.163Z,18.02
2022-08-27T13:14:31.082Z,18.30
2022-08-27T13:17:09.242Z,17.95
2022-08-27T13:20:07.146Z,19.13
2022-08-27T13:22:54.066Z,19.90
2022-08-27T13:25:49.091Z,17.40
2022-08-27T13:28:46.209Z,19.38
2022-08-27T13:31:41.188Z,19.20
2022-08-27T13:34:42.144Z,17.42
2022-08-27T13:37:42.172Z,18.55
2022-08-27T13:40:35.147Z,17.77
2022-08-27T13:43:16.171Z,19.27
2022-08-27T13:46:05.093Z,17.52
2022-08-27T13:48:40.178Z,18.38
2022-08-27T13:51:36.140Z,18.88
2022-08-27T13:54:23.096Z,20.25
2022-08-27T13:57:17.110Z,17.63
2022-08-27T13:59:50.180Z,19.17
2022-08-27T14:02:39.188Z,19.63
2022-08-27T14:05:26.232Z,18.40
2022-08-27T14:08:30.142Z,16.67
2022-08-27T14:11:17.128Z,23.02
2022-08-27T14:13:54.285Z,19.50
2022-08-27T14:16:42.129Z,17.02
2022-08-27T14:19:33.405Z,17.42
2022-08-27T14:22:24.142Z,20.17
2022-08-27T14:25:04.143Z,20.30
2022-08-27T14:27:54.270Z,19.50
2022-08-27T14:30:31.585Z,16.92
2022-08-27T14:33:18.140Z,20.50
2022-08-27T14:35:52.290Z,19.73
2022-08-27T14:38:41.045Z,18.10
2022-08-27T14:41:22.134Z,18.35
2022-08-27T14:44:09.153Z,17.40
2022-08-27T14:46:43.326Z,18.80
2022-08-27T14:49:36.150Z,17.92
2022-08-27T14:52:11.225Z,20.23
2022-08-27T14:54:58.154Z,17.33
2022-08-27T14:57:31.229Z,17.45
2022-08-27T15:00:20.862Z,18.33
2022-08-27T15:02:55.637Z,20.25
2022-08-27T15:05:43.032Z,19.33
2022-08-27T15:08:27.634Z,19.58
2022-08-27T15:11:23.170Z,21.65
2022-08-27T15:13:58.247Z,20.20
2022-08-27T15:16:47.172Z,18.15
2022-08-27T15:19:20.232Z,19.65
2022-08-27T15:22:16.958Z,18.90
2022-08-27T15:24:54.242Z,16.45
2022-08-27T15:27:42.158Z,19.83
2022-08-27T15:30:19.234Z,19.38
2022-08-27T15:33:06.165Z,20.58
2022-08-27T15:35:46.185Z,15.60
2022-08-27T15:38:40.177Z,17.92
2022-08-27T15:41:30.194Z,18.58
2022-08-27T15:44:11.164Z,19.98
2022-08-27T15:46:59.194Z,17.13
2022-08-27T15:49:32.267Z,21.33
2022-08-27T15:52:21.166Z,20.30
2022-08-27T15:55:03.148Z,18.02
2022-08-27T15:57:57.156Z,17.45
2022-08-27T16:00:45.180Z,17.92
2022-08-27T16:03:35.479Z,18.27
2022-08-27T16:06:30.154Z,16.73
2022-08-27T16:09:17.165Z,17.38
2022-08-27T16:11:50.223Z,16.52
2022-08-27T16:14:37.174Z,15.38
2022-08-27T16:17:10.302Z,17.15
2022-08-27T16:19:58.313Z,18.48
2022-08-27T16:22:31.272Z,18.15
2022-08-27T16:25:19.174Z,18.02
2022-08-27T16:27:54.317Z,19.42
2022-08-27T16:30:48.268Z,17.10
2022-08-27T16:33:42.190Z,17.20
2022-08-27T16:36:29.190Z,19.50
2022-08-27T16:39:09.179Z,19.42
2022-08-27T16:42:03.186Z,19.58
2022-08-27T16:44:50.169Z,16.95
2022-08-27T16:47:30.192Z,18.75
2022-08-27T16:50:35.179Z,20.13
2022-08-27T16:53:26.189Z,24.63
2022-08-27T16:56:13.985Z,21.38
2022-08-27T16:58:47.275Z,20.00
2022-08-27T17:01:34.254Z,22.88
2022-08-27T17:04:15.371Z,20.58
2022-08-27T17:07:05.219Z,20.45
2022-08-27T17:09:38.796Z,17.65
2022-08-27T17:12:31.204Z,19.65
2022-08-27T17:15:04.290Z,20.55
2022-08-27T17:17:51.186Z,20.45
2022-08-27T17:20:24.309Z,20.65
2022-08-27T17:23:13.212Z,21.13
2022-08-27T17:25:53.222Z,21.30
2022-08-27T17:28:47.219Z,20.83
2022-08-27T17:31:45.239Z,18.95
2022-08-27T17:34:32.226Z,20.80
2022-08-27T17:37:13.201Z,20.80
2022-08-27T17:40:00.336Z,21.27
2022-08-27T17:42:42.213Z,19.52
2022-08-27T17:45:36.247Z,21.13
2022-08-27T17:48:26.595Z,21.05
2022-08-27T17:51:00.316Z,24.38
2022-08-27T17:54:00.456Z,23.23
2022-08-27T17:56:39.445Z,21.80
2022-08-27T17:59:27.242Z,22.63
2022-08-27T18:02:07.236Z,25.83
2022-08-27T18:05:01.287Z,25.10
2022-08-27T18:07:49.227Z,23.35
2022-08-27T18:10:27.296Z,23.25
2022-08-27T18:13:14.237Z,23.90
2022-08-27T18:15:57.242Z,21.75
2022-08-27T18:18:45.251Z,26.20
2022-08-27T18:21:25.137Z,31.38
2022-08-27T18:24:12.248Z,29.77
2022-08-27T18:26:52.255Z,25.38
2022-08-27T18:29:40.252Z,21.92
2022-08-27T18:32:34.248Z,23.30
2022-08-27T18:35:25.261Z,23.65
2022-08-27T18:37:58.353Z,23.30
2022-08-27T18:40:50.273Z,22.35
2022-08-27T18:43:27.351Z,25.17
2022-08-27T18:46:14.292Z,22.80
2022-08-27T18:48:55.335Z,24.67
2022-08-27T18:51:52.522Z,22.50
2022-08-27T18:54:39.262Z,23.83
2022-08-27T18:57:13.091Z,25.58
2022-08-27T19:00:00.268Z,24.13
2022-08-27T19:02:34.536Z,22.95
2022-08-27T19:05:22.285Z,25.15
2022-08-27T19:08:02.267Z,22.98
2022-08-27T19:10:56.273Z,24.52
2022-08-27T19:13:43.262Z,24.05
2022-08-27T19:16:30.351Z,23.63
2022-08-27T19:19:27.294Z,26.65
2022-08-27T19:22:21.293Z,24.83
2022-08-27T19:25:08.287Z,25.73
2022-08-27T19:27:49.276Z,24.88
2022-08-27T19:30:43.286Z,25.58
2022-08-27T19:33:30.289Z,25.30
2022-08-27T19:36:04.426Z,25.17
2022-08-27T19:38:52.309Z,22.40
2022-08-27T19:41:27.994Z,25.48
2022-08-27T19:44:15.292Z,24.58
2022-08-27T19:46:48.376Z,24.45
2022-08-27T19:49:35.306Z,23.92
2022-08-27T19:52:08.751Z,24.95
2022-08-27T19:55:13.206Z,25.60
2022-08-27T19:57:47.396Z,24.30
2022-08-27T20:00:34.285Z,24.20
2022-08-27T20:03:07.464Z,24.33
2022-08-27T20:05:56.299Z,24.13
2022-08-27T20:08:29.417Z,24.67
2022-08-27T20:11:16.317Z,24.42
2022-08-27T20:13:56.295Z,23.98
2022-08-27T20:16:43.360Z,23.92
2022-08-27T20:19:16.413Z,23.58
2022-08-27T20:22:03.322Z,23.83
2022-08-27T20:24:43.335Z,24.08
2022-08-27T20:27:30.338Z,24.23
2022-08-27T20:30:04.736Z,23.48
2022-08-27T20:32:53.305Z,21.88
2022-08-27T20:35:28.424Z,24.88
2022-08-27T20:38:15.321Z,23.27
2022-08-27T20:40:48.409Z,22.02
2022-08-27T20:43:35.330Z,23.70
2022-08-27T20:46:10.999Z,23.33
2022-08-27T20:48:59.331Z,25.20
2022-08-27T20:51:56.793Z,23.42
2022-08-27T20:54:54.332Z,23.60
2022-08-27T20:57:41.330Z,23.58
2022-08-27T21:00:21.568Z,24.50
2022-08-27T21:03:08.331Z,24.40
2022-08-27T21:05:47.171Z,25.02
2022-08-27T21:08:34.347Z,25.67
2022-08-27T21:11:07.415Z,24.70
2022-08-27T21:13:56.617Z,25.73
2022-08-27T21:16:39.363Z,24.65
2022-08-27T21:19:33.384Z,24.15
2022-08-27T21:22:27.566Z,24.55
2022-08-27T21:25:16.331Z,26.42
2022-08-27T21:27:49.467Z,25.48
2022-08-27T21:30:43.336Z,24.23
2022-08-27T21:33:37.847Z,26.20
2022-08-27T21:36:26.362Z,24.77
2022-08-27T21:38:59.540Z,24.75
2022-08-27T21:41:46.360Z,23.73
2022-08-27T21:44:29.348Z,24.73
2022-08-27T21:47:24.372Z,25.52
2022-08-27T21:50:13.374Z,25.85
2022-08-27T21:52:46.495Z,24.63
2022-08-27T21:55:33.368Z,24.52
2022-08-27T21:58:06.454Z,23.92
2022-08-27T22:00:56.471Z,24.80
2022-08-27T22:03:31.473Z,24.77
2022-08-27T22:06:19.399Z,24.83
2022-08-27T22:08:52.452Z,24.35
2022-08-27T22:11:39.391Z,24.77
2022-08-27T22:14:12.485Z,25.30
2022-08-27T22:16:59.458Z,25.48
2022-08-27T22:19:39.404Z,24.15
2022-08-27T22:22:30.805Z,23.65
2022-08-27T22:25:11.402Z,23.58
2022-08-27T22:27:59.385Z,24.45
2022-08-27T22:30:39.374Z,26.00
2022-08-27T22:33:26.406Z,24.35
2022-08-27T22:36:06.394Z,24.90
2022-08-27T22:39:04.112Z,25.70
2022-08-27T22:41:51.453Z,24.75
2022-08-27T22:44:24.501Z,24.90
2022-08-27T22:47:11.405Z,25.90
2022-08-27T22:49:44.540Z,25.65
2022-08-27T22:52:31.405Z,25.75
2022-08-27T22:55:04.475Z,25.52
2022-08-27T22:57:52.417Z,26.65
2022-08-27T23:00:36.412Z,27.75
2022-08-27T23:03:23.413Z,25.88
2022-08-27T23:06:04.472Z,25.67
2022-08-27T23:08:51.401Z,24.70
2022-08-27T23:11:31.403Z,24.67
2022-08-27T23:14:25.416Z,26.73
2022-08-27T23:17:12.430Z,24.40
2022-08-27T23:19:52.409Z,25.70
2022-08-27T23:22:39.402Z,25.65
2022-08-27T23:25:40.575Z,27.23
2022-08-27T23:28:29.411Z,26.70
2022-08-27T23:31:02.565Z,26.60
2022-08-27T23:33:49.413Z,26.85
2022-08-27T23:36:29.451Z,27.10
2022-08-27T23:39:17.425Z,27.73
2022-08-27T23:41:51.542Z,28.33
2022-08-27T23:44:38.429Z,27.30
2022-08-27T23:47:11.497Z,25.50
2022-08-27T23:49:58.433Z,27.13
2022-08-27T23:52:38.424Z,25.20
2022-08-27T23:55:32.461Z,24.48
2022-08-27T23:58:19.450Z,25.55
